Pagina principale
METAR-TAF:

METAR-TAF

Aeroporti :

Elmira / Corning, New York, Stati Uniti

latitudine: 42-09-23N, longitudine: 076-54-10W, altezza: 291 m

Osservazione

Il bollettino è stato emesso 25 minuti fa, alle 23:53 UTC
Vento calmo
Temperature -6°C
Umidità 73%
Pressione 1021 hPa
Visibilità: 16.1 km
Cielo sereno

METAR: KELM 182353Z 00000KT 10SM CLR M06/M10 A3016 RMK AO2 SLP228 T10561100 11017 21067 51008

Ora: 19:18 (00:18 UTC)

Previsione

Il bollettino è stato emesso 58 minuti fa, alle 23:20 UTC
Previsione valida dal 19 alle 00 UTC al 19 alle 24 UTC
Vento 3 kt da direzioni variabili
Visibilità: 10 km
Nubi sparse ad un'altezza di 25000 ft

TAF: KELM 182320Z 1900/1924 VRB03KT P6SM SCT250

Osservazioni e previsioni meteorologiche di più di 4000 aeroporti (messaggi METAR e TAF).

Le stazioni disponibili sono rappresentate dai dischi gialli e rossi sulla carta.

Puntare il mouse per vedere il nome della stazione.

Clicca sopra per visualizzare le osservazioni e previsioni meteorologiche.

Per cambiare la mappa : fare clic sui pulsanti verdi con una croce nera per ingrandire, il pulsante verde con un trattino per diminuire, o sulla freccia verde per le mappe adiacenti.


METAR-TAF: